00:07
Airports
History
Links
Donate
Help keep this website running!
PayPal
Bitcoin
This page is community maintained. The information is intended for PC simulator navigation or reference.
Always use approved charts for navigation.
EDHO
Ahrenlohe
Ahrenlohe (EDHO)
Tornesch, Schleswig-Holstein, Germany (25436)
(C)
Lat/Lng:53° 42' 7.71" N / 9° 44' 36.09" E
53.702141 / 9.743358
Elevation:33'ft / 10mMSL
ID / ICAO:EDHO
Runways:1
Longest:05-23
Asphalt 579m / 1,901ft
Controlled:Yes
Nearby Weather23:50 GMT 2017-10-16
Nearby weather at EDDH, Hamburg located 10.8 nautical miles from EDHO
Altimeter: 30.09
Visibility: 6.2 statute miles
Wind: 6 knots (from 220°)
Temp: 16°c / 61°f
Humidity: 82.4%

METAR: EDDH 162350Z 22006KT CAVOK 16/13 Q1019 NOSIG

(Powered by phpweather)
Airport Radio Frequencies
Tower: 122.6
Nearby VORs <50NM
Nearby NDBs
Runway 05 / 23
Dimensions:579.4 x 14.9m 1901' x 49'ft
Surface:Asphalt
Runway 05 [A]Runway 23 [B]
Heading:053°TH 233°TH
Lat:
Lng:
53° 42' 2.05"N
9° 44' 23.41"E
53° 42' 13.36"N
9° 44' 48.76"E
User Notes and Comments
53° 42' 7.71" N / 9° 44' 36.09" E
Distance To
Airport ID:
Nearby Airports
(C) Uetersen 4.2 NM
EDHE SSW 203°
(C) Hamburg 10.8 NM
EDDH ( WX ) ESE 114°
(C) Hamburg Finkenwerder 12.1 NM
EDHI ( WX ) SSE 161°
(U) Stade 14.1 NM
EDHS SW 225°
(U) Hartenholm 19.1 NM
EDHM NE 39°
(C) Hungriger Wolf 21.2 NM
EDHF NNW 340°
(C) Wahlstedt 26.9 NM
EDHW NE 46°
VFR Chart
Flight Planning at SkyVector.com